createdAt,value
2023-04-14T00:00:47.906Z,67.86
2023-04-14T00:03:16.881Z,67.56
2023-04-14T00:05:44.891Z,67.87
2023-04-14T00:08:12.868Z,67.49
2023-04-14T00:10:40.706Z,67.65
2023-04-14T00:13:09.846Z,67.88
2023-04-14T00:15:37.683Z,67.38
2023-04-14T00:18:08.575Z,67.71
2023-04-14T00:20:36.463Z,67.68
2023-04-14T00:23:04.271Z,67.73
2023-04-14T00:25:32.109Z,67.87
2023-04-14T00:27:59.834Z,67.92
2023-04-14T00:30:30.606Z,68.15
2023-04-14T00:32:58.447Z,67.80
2023-04-14T00:35:26.349Z,67.88
2023-04-14T00:37:56.578Z,67.93
2023-04-14T00:40:24.511Z,67.93
2023-04-14T00:42:52.336Z,67.93
2023-04-14T00:45:20.420Z,67.94
2023-04-14T00:47:50.872Z,68.44
2023-04-14T00:50:20.901Z,68.29
2023-04-14T00:52:52.663Z,68.20
2023-04-14T00:55:21.434Z,67.90
2023-04-14T00:57:50.475Z,68.05
2023-04-14T01:00:19.201Z,68.29
2023-04-14T01:02:47.225Z,68.16
2023-04-14T01:05:16.901Z,68.29
2023-04-14T01:07:45.541Z,68.39
2023-04-14T01:10:13.540Z,68.48
2023-04-14T01:12:58.704Z,68.43
2023-04-14T01:15:35.609Z,68.26
2023-04-14T01:18:10.470Z,68.26
2023-04-14T01:20:43.569Z,68.51
2023-04-14T01:23:16.692Z,68.24
2023-04-14T01:26:19.325Z,68.07
2023-04-14T01:29:10.441Z,68.40
2023-04-14T01:31:45.670Z,68.52
2023-04-14T01:34:20.716Z,68.22
2023-04-14T01:36:56.660Z,68.49
2023-04-14T01:39:27.655Z,68.51
2023-04-14T01:41:58.213Z,68.48
2023-04-14T01:44:27.993Z,68.50
2023-04-14T01:47:03.397Z,68.60
2023-04-14T01:49:34.349Z,68.42
2023-04-14T01:52:05.524Z,68.58
2023-04-14T01:54:34.432Z,68.44
2023-04-14T01:57:04.147Z,68.83
2023-04-14T01:59:34.652Z,68.76
2023-04-14T02:02:06.309Z,68.56
2023-04-14T02:04:36.847Z,68.68
2023-04-14T02:07:07.413Z,68.51
2023-04-14T02:09:36.325Z,68.76
2023-04-14T02:12:05.472Z,68.90
2023-04-14T02:14:34.854Z,68.80
2023-04-14T02:17:05.918Z,68.83
2023-04-14T02:19:35.028Z,68.99
2023-04-14T02:22:04.486Z,68.78
2023-04-14T02:24:32.383Z,68.77
2023-04-14T02:27:08.228Z,68.85
2023-04-14T02:29:38.716Z,69.00
2023-04-14T02:32:13.536Z,68.84
2023-04-14T02:34:48.935Z,69.12
2023-04-14T02:37:22.735Z,68.83
2023-04-14T02:39:56.826Z,68.94
2023-04-14T02:42:28.425Z,69.07
2023-04-14T02:45:03.490Z,69.11
2023-04-14T02:47:36.035Z,69.02
2023-04-14T02:50:06.398Z,69.24
2023-04-14T02:52:35.454Z,69.16
2023-04-14T02:55:05.099Z,69.13
2023-04-14T02:57:34.248Z,69.14
2023-04-14T03:00:03.757Z,69.11
2023-04-14T03:02:34.533Z,68.97
2023-04-14T03:05:03.977Z,69.32
2023-04-14T03:07:32.961Z,68.98
2023-04-14T03:10:02.703Z,69.49
2023-04-14T03:12:31.612Z,69.47
2023-04-14T03:15:00.638Z,69.44
2023-04-14T03:17:29.869Z,69.21
2023-04-14T03:20:00.295Z,69.21
2023-04-14T03:22:29.143Z,69.43
2023-04-14T03:24:58.935Z,69.63
2023-04-14T03:27:30.135Z,69.47
2023-04-14T03:30:04.376Z,69.36
2023-04-14T03:32:35.820Z,69.56
2023-04-14T03:35:07.051Z,69.54
2023-04-14T03:37:40.417Z,69.48
2023-04-14T03:40:11.307Z,69.45
2023-04-14T03:42:44.616Z,69.51
2023-04-14T03:45:13.146Z,69.67
2023-04-14T03:47:41.026Z,69.71
2023-04-14T03:50:12.203Z,69.63
2023-04-14T03:52:42.802Z,69.83
2023-04-14T03:55:13.584Z,69.49
2023-04-14T03:57:43.933Z,69.91
2023-04-14T04:00:15.813Z,69.49
2023-04-14T04:02:45.199Z,70.16
2023-04-14T04:05:14.902Z,69.71
2023-04-14T04:07:44.982Z,69.67
2023-04-14T04:10:14.228Z,69.81
2023-04-14T04:12:44.326Z,69.74
2023-04-14T04:15:12.652Z,70.06
2023-04-14T04:17:41.641Z,69.83
2023-04-14T04:20:13.541Z,69.65
2023-04-14T04:22:46.149Z,69.87
2023-04-14T04:25:14.526Z,69.88
2023-04-14T04:27:42.600Z,70.06
2023-04-14T04:30:11.793Z,69.81
2023-04-14T04:32:40.302Z,70.15
2023-04-14T04:35:09.477Z,70.25
2023-04-14T04:37:38.818Z,70.08
2023-04-14T04:40:09.602Z,69.97
2023-04-14T04:42:42.106Z,70.12
2023-04-14T04:45:11.186Z,70.18
2023-04-14T04:47:39.076Z,70.40
2023-04-14T04:50:07.738Z,70.26
2023-04-14T04:52:35.575Z,70.58
2023-04-14T04:55:03.390Z,70.41
2023-04-14T04:57:32.960Z,70.64
2023-04-14T05:00:01.231Z,70.21
2023-04-14T05:02:29.026Z,70.34
2023-04-14T05:04:57.487Z,70.42
2023-04-14T05:07:25.315Z,70.46
2023-04-14T05:09:53.122Z,70.32
2023-04-14T05:12:21.162Z,70.70
2023-04-14T05:14:50.404Z,70.38
2023-04-14T05:17:18.159Z,70.30
2023-04-14T05:19:45.965Z,70.73
2023-04-14T05:22:13.969Z,70.72
2023-04-14T05:24:41.700Z,70.35
2023-04-14T05:27:14.360Z,70.66
2023-04-14T05:29:42.762Z,70.26
2023-04-14T05:32:13.423Z,70.61
2023-04-14T05:34:41.351Z,70.78
2023-04-14T05:37:09.126Z,70.65
2023-04-14T05:39:37.123Z,70.64
2023-04-14T05:42:05.618Z,70.70
2023-04-14T05:44:33.377Z,71.15
2023-04-14T05:47:01.453Z,70.95
2023-04-14T05:49:31.127Z,71.03
2023-04-14T05:51:58.877Z,71.06
2023-04-14T05:54:26.672Z,71.04
2023-04-14T05:56:54.395Z,70.91
2023-04-14T05:59:22.216Z,70.94
2023-04-14T06:01:50.173Z,71.07
2023-04-14T06:04:18.138Z,71.17
2023-04-14T06:06:47.571Z,71.20
2023-04-14T06:09:15.865Z,71.17
2023-04-14T06:11:43.612Z,71.23
2023-04-14T06:14:11.416Z,71.02
2023-04-14T06:16:39.500Z,71.05
2023-04-14T06:19:07.407Z,71.03
2023-04-14T06:21:35.484Z,70.99
2023-04-14T06:24:04.812Z,71.38
2023-04-14T06:26:32.719Z,71.17
2023-04-14T06:29:00.986Z,71.30
2023-04-14T06:31:29.059Z,71.09
2023-04-14T06:33:56.837Z,70.79
2023-04-14T06:36:24.616Z,71.55
2023-04-14T06:38:52.528Z,71.28
2023-04-14T06:41:21.617Z,71.61
2023-04-14T06:43:49.386Z,71.40
2023-04-14T06:46:17.629Z,71.21
2023-04-14T06:48:45.671Z,71.36
2023-04-14T06:51:14.082Z,71.25
2023-04-14T06:53:41.882Z,71.78
2023-04-14T06:56:12.660Z,71.63
2023-04-14T06:58:41.946Z,71.66
2023-04-14T07:01:09.944Z,71.39
2023-04-14T07:03:37.860Z,71.90
2023-04-14T07:06:06.962Z,71.60
2023-04-14T07:08:35.444Z,71.85
2023-04-14T07:11:05.357Z,71.77
2023-04-14T07:13:34.369Z,71.40
2023-04-14T07:16:04.114Z,71.39
2023-04-14T07:18:32.564Z,71.50
2023-04-14T07:21:00.942Z,71.51
2023-04-14T07:23:29.624Z,71.74
2023-04-14T07:25:58.875Z,71.49
2023-04-14T07:28:28.938Z,71.50
2023-04-14T07:30:56.901Z,72.12
2023-04-14T07:33:27.129Z,72.12
2023-04-14T07:36:02.810Z,72.13
2023-04-14T07:38:33.028Z,72.23
2023-04-14T07:41:04.002Z,72.30
2023-04-14T07:43:35.206Z,71.79
2023-04-14T07:46:05.288Z,71.83
2023-04-14T07:48:36.288Z,72.01
2023-04-14T07:51:04.617Z,71.77
2023-04-14T07:53:32.577Z,71.65
2023-04-14T07:56:00.856Z,72.29
2023-04-14T07:58:30.012Z,71.98
2023-04-14T08:00:58.388Z,71.81
2023-04-14T08:03:27.279Z,71.87
2023-04-14T08:05:57.547Z,72.35
2023-04-14T08:08:26.235Z,72.03
2023-04-14T08:10:54.203Z,72.62
2023-04-14T08:13:22.032Z,72.62
2023-04-14T08:15:50.329Z,72.14
2023-04-14T08:18:18.469Z,71.91
2023-04-14T08:20:46.469Z,72.59
2023-04-14T08:23:15.743Z,71.88
2023-04-14T08:25:44.338Z,72.77
2023-04-14T08:28:12.495Z,72.49
2023-04-14T08:30:40.356Z,72.53
2023-04-14T08:33:08.297Z,72.51
2023-04-14T08:35:42.316Z,72.73
2023-04-14T08:38:11.322Z,72.81
2023-04-14T08:40:42.096Z,72.61
2023-04-14T08:43:13.019Z,72.45
2023-04-14T08:45:43.235Z,72.58
2023-04-14T08:48:13.155Z,72.45
2023-04-14T08:50:50.440Z,72.34
2023-04-14T08:53:21.702Z,72.24
2023-04-14T08:55:52.522Z,72.76
2023-04-14T08:58:21.040Z,72.82
2023-04-14T09:00:50.726Z,72.07
2023-04-14T09:03:19.823Z,72.90
2023-04-14T09:05:48.827Z,72.46
2023-04-14T09:08:16.816Z,72.54
2023-04-14T09:10:45.769Z,72.52
2023-04-14T09:13:16.036Z,72.56
2023-04-14T09:15:44.392Z,72.46
2023-04-14T09:18:12.581Z,72.38
2023-04-14T09:21:29.438Z,72.72
2023-04-14T09:23:36.473Z,72.91
2023-04-14T09:26:09.290Z,72.69
2023-04-14T09:28:38.913Z,72.52
2023-04-14T09:31:06.697Z,72.37
2023-04-14T09:33:39.302Z,72.85
2023-04-14T09:36:07.331Z,72.66
2023-04-14T09:38:37.566Z,72.11
2023-04-14T09:41:07.392Z,72.66
2023-04-14T09:43:36.790Z,72.42
2023-04-14T09:46:08.618Z,72.15
2023-04-14T09:48:37.664Z,72.56
2023-04-14T09:51:10.000Z,72.44
2023-04-14T09:53:40.269Z,72.48
2023-04-14T09:56:09.950Z,72.46
2023-04-14T09:58:39.747Z,72.03
2023-04-14T10:01:14.788Z,72.90
2023-04-14T10:03:45.532Z,72.61
2023-04-14T10:06:18.266Z,72.60
2023-04-14T10:08:48.581Z,72.07
2023-04-14T10:11:21.549Z,72.34
2023-04-14T10:13:50.640Z,72.53
2023-04-14T10:16:20.054Z,72.55
2023-04-14T10:18:48.098Z,72.81
2023-04-14T10:21:17.719Z,72.69
2023-04-14T10:23:46.322Z,72.47
2023-04-14T10:26:15.050Z,72.76
2023-04-14T10:28:45.726Z,72.21
2023-04-14T10:31:16.340Z,72.61
2023-04-14T10:33:45.464Z,72.33
2023-04-14T10:36:13.704Z,72.52
2023-04-14T10:38:43.503Z,72.12
2023-04-14T10:41:12.722Z,72.18
2023-04-14T10:43:41.497Z,72.52
2023-04-14T10:46:11.326Z,72.17
2023-04-14T10:48:41.362Z,72.12
2023-04-14T10:51:11.892Z,72.03
2023-04-14T10:53:45.868Z,72.63
2023-04-14T10:56:14.100Z,72.16
2023-04-14T10:58:41.872Z,72.50
2023-04-14T11:01:24.146Z,72.11
2023-04-14T11:03:52.316Z,72.45
2023-04-14T11:06:53.366Z,72.13
2023-04-14T11:09:33.210Z,72.41
2023-04-14T11:12:06.798Z,72.36
2023-04-14T11:14:36.338Z,72.34
2023-04-14T11:17:06.171Z,72.30
2023-04-14T11:19:34.344Z,72.57
2023-04-14T11:22:03.493Z,72.78
2023-04-14T11:24:32.451Z,72.06
2023-04-14T11:27:00.594Z,72.52
2023-04-14T11:29:28.388Z,72.78
2023-04-14T11:32:08.920Z,72.46
2023-04-14T11:34:37.207Z,72.60
2023-04-14T11:37:08.011Z,72.60
2023-04-14T11:39:36.921Z,72.14
2023-04-14T11:42:05.770Z,72.13
2023-04-14T11:44:34.435Z,72.15
2023-04-14T11:47:02.526Z,72.54
2023-04-14T11:49:37.739Z,72.58
2023-04-14T11:52:07.841Z,72.26
2023-04-14T11:54:37.179Z,72.26
2023-04-14T11:57:10.370Z,72.21
2023-04-14T11:59:43.506Z,72.80
2023-04-14T12:02:18.333Z,72.31
2023-04-14T12:04:47.236Z,72.27
2023-04-14T12:07:18.611Z,72.55
2023-04-14T12:09:48.829Z,72.69
2023-04-14T12:12:18.810Z,72.83
2023-04-14T12:14:48.466Z,72.54
2023-04-14T12:17:17.792Z,71.90
2023-04-14T12:19:47.381Z,72.38
2023-04-14T12:22:24.844Z,72.57
2023-04-14T12:24:52.761Z,72.46
2023-04-14T12:27:21.327Z,72.89
2023-04-14T12:29:50.124Z,72.66
2023-04-14T12:32:18.825Z,72.66
2023-04-14T12:34:58.524Z,72.88
2023-04-14T12:37:29.194Z,72.86
2023-04-14T12:39:59.848Z,72.94
2023-04-14T12:42:29.057Z,72.45
2023-04-14T12:44:59.002Z,72.86
2023-04-14T12:47:32.515Z,72.77
2023-04-14T12:50:02.298Z,72.54
2023-04-14T12:52:38.350Z,72.79
2023-04-14T12:55:07.813Z,72.70
2023-04-14T12:57:36.468Z,72.38
2023-04-14T13:00:05.287Z,72.97
2023-04-14T13:02:35.663Z,73.05
2023-04-14T13:05:05.023Z,72.65
2023-04-14T13:07:34.368Z,72.63
2023-04-14T13:10:02.774Z,72.22
2023-04-14T13:12:30.698Z,72.84
2023-04-14T13:14:58.449Z,72.76
2023-04-14T13:17:26.710Z,72.15
2023-04-14T13:19:54.763Z,72.64
2023-04-14T13:22:22.507Z,72.88
2023-04-14T13:24:52.172Z,72.02
2023-04-14T13:27:20.870Z,72.35
2023-04-14T13:29:48.716Z,72.53
2023-04-14T13:32:17.385Z,72.18
2023-04-14T13:34:45.266Z,71.96
2023-04-14T13:37:13.044Z,72.02
2023-04-14T13:39:40.960Z,72.18
2023-04-14T13:42:10.409Z,72.74
2023-04-14T13:44:38.137Z,72.66
2023-04-14T13:47:06.066Z,72.73
2023-04-14T13:49:33.866Z,72.84
2023-04-14T13:52:01.593Z,72.78
2023-04-14T13:54:29.401Z,72.37
2023-04-14T13:56:57.810Z,72.73
2023-04-14T13:59:27.138Z,72.45
2023-04-14T14:01:55.177Z,72.30
2023-04-14T14:04:23.042Z,72.17
2023-04-14T14:06:50.858Z,72.10
2023-04-14T14:09:18.677Z,72.72
2023-04-14T14:11:46.766Z,71.95
2023-04-14T14:14:14.941Z,71.92
2023-04-14T14:16:44.651Z,72.32
2023-04-14T14:19:16.984Z,72.02
2023-04-14T14:21:45.040Z,72.11
2023-04-14T14:24:14.105Z,72.70
2023-04-14T14:26:41.874Z,72.41
2023-04-14T14:29:09.956Z,72.42
2023-04-14T14:31:37.950Z,72.05
2023-04-14T14:34:09.554Z,72.64
2023-04-14T14:36:37.769Z,72.74
2023-04-14T14:39:05.994Z,71.94
2023-04-14T14:41:34.573Z,71.93
2023-04-14T14:44:03.486Z,72.87
2023-04-14T14:46:31.994Z,72.83
2023-04-14T14:48:59.973Z,72.44
2023-04-14T14:51:29.190Z,72.08
2023-04-14T14:54:08.716Z,72.34
2023-04-14T14:56:37.911Z,72.53
2023-04-14T14:59:05.776Z,72.33
2023-04-14T15:01:34.188Z,71.90
2023-04-14T15:04:02.590Z,72.08
2023-04-14T15:06:32.793Z,71.99
2023-04-14T15:09:01.618Z,72.18
2023-04-14T15:11:29.608Z,72.31
2023-04-14T15:13:58.529Z,72.35
2023-04-14T15:16:26.394Z,71.99
2023-04-14T15:18:54.368Z,72.31
2023-04-14T15:21:22.528Z,72.64
2023-04-14T15:23:52.059Z,71.92
2023-04-14T15:26:19.980Z,71.69
2023-04-14T15:28:48.444Z,72.47
2023-04-14T15:31:16.244Z,72.26
2023-04-14T15:33:44.543Z,72.31
2023-04-14T15:36:12.532Z,72.45
2023-04-14T15:38:40.336Z,72.42
2023-04-14T15:41:09.435Z,71.69
2023-04-14T15:43:37.193Z,72.32
2023-04-14T15:46:05.060Z,72.33
2023-04-14T15:48:32.829Z,72.31
2023-04-14T15:51:00.654Z,71.61
2023-04-14T15:53:28.496Z,72.45
2023-04-14T15:55:56.209Z,71.54
2023-04-14T15:58:25.725Z,71.80
2023-04-14T16:00:53.763Z,71.72
2023-04-14T16:03:21.860Z,71.56
2023-04-14T16:05:50.125Z,71.67
2023-04-14T16:08:19.591Z,71.57
2023-04-14T16:10:47.338Z,72.10
2023-04-14T16:13:15.093Z,71.69
2023-04-14T16:15:44.238Z,71.61
2023-04-14T16:18:12.135Z,71.76
2023-04-14T16:20:39.895Z,71.43
2023-04-14T16:23:07.734Z,72.05
2023-04-14T16:25:35.770Z,71.59
2023-04-14T16:28:03.655Z,71.60
2023-04-14T16:30:32.407Z,71.33
2023-04-14T16:33:01.586Z,71.53
2023-04-14T16:35:30.258Z,72.03
2023-04-14T16:37:58.217Z,72.04
2023-04-14T16:40:26.669Z,71.66
2023-04-14T16:42:54.534Z,72.06
2023-04-14T16:45:22.305Z,71.97
2023-04-14T16:47:50.656Z,71.80
2023-04-14T16:50:20.779Z,71.46
2023-04-14T16:52:48.765Z,71.99
2023-04-14T16:55:17.073Z,71.95
2023-04-14T16:57:44.820Z,71.80
2023-04-14T17:00:13.891Z,71.92
2023-04-14T17:02:42.150Z,71.50
2023-04-14T17:05:13.216Z,71.55
2023-04-14T17:07:42.504Z,71.37
2023-04-14T17:10:11.520Z,71.50
2023-04-14T17:12:39.596Z,71.48
2023-04-14T17:15:08.539Z,71.59
2023-04-14T17:17:36.814Z,71.45
2023-04-14T17:20:06.203Z,71.67
2023-04-14T17:22:34.225Z,71.38
2023-04-14T17:25:06.450Z,71.18
2023-04-14T17:27:34.311Z,71.57
2023-04-14T17:30:03.311Z,71.44
2023-04-14T17:32:31.284Z,71.63
2023-04-14T17:34:59.352Z,71.63
2023-04-14T17:37:28.360Z,71.42
2023-04-14T17:39:59.087Z,71.44
2023-04-14T17:42:28.355Z,71.42
2023-04-14T17:44:56.454Z,71.38
2023-04-14T17:47:24.400Z,71.30
2023-04-14T17:49:52.740Z,71.41
2023-04-14T17:52:21.288Z,71.22
2023-04-14T17:54:49.997Z,71.10
2023-04-14T17:57:18.079Z,71.33
2023-04-14T17:59:47.379Z,71.32
2023-04-14T18:02:16.346Z,71.27
2023-04-14T18:04:44.418Z,71.25
2023-04-14T18:07:12.879Z,71.48
2023-04-14T18:09:40.797Z,71.37
2023-04-14T18:12:08.593Z,71.21
2023-04-14T18:14:36.721Z,71.27
2023-04-14T18:17:06.446Z,71.30
2023-04-14T18:19:35.833Z,71.08
2023-04-14T18:22:04.210Z,71.28
2023-04-14T18:28:02.659Z,71.34
2023-04-14T18:29:52.197Z,71.24
2023-04-14T18:32:22.263Z,71.22
2023-04-14T18:34:50.081Z,71.31
2023-04-14T18:37:18.016Z,71.25
2023-04-14T18:39:45.804Z,71.26
2023-04-14T18:42:14.671Z,71.30
2023-04-14T18:44:42.815Z,71.38
2023-04-14T18:47:10.762Z,71.35
2023-04-14T18:49:40.399Z,71.17
2023-04-14T18:52:08.369Z,71.29
2023-04-14T18:54:36.797Z,71.32
2023-04-14T18:57:05.426Z,71.12
2023-04-14T18:59:34.961Z,71.14
2023-04-14T19:02:02.978Z,71.22
2023-04-14T19:04:31.510Z,71.23
2023-04-14T19:07:00.916Z,71.24
2023-04-14T19:09:28.809Z,71.33
2023-04-14T19:11:57.260Z,71.21
2023-04-14T19:14:25.072Z,71.47
2023-04-14T19:16:52.992Z,71.11
2023-04-14T19:19:20.764Z,71.47
2023-04-14T19:21:48.835Z,71.25
2023-04-14T19:24:17.943Z,71.57
2023-04-14T19:26:46.178Z,71.25
2023-04-14T19:29:14.345Z,71.14
2023-04-14T19:31:42.209Z,71.31
2023-04-14T19:34:10.157Z,71.21
2023-04-14T19:36:38.016Z,71.44
2023-04-14T19:39:06.157Z,71.22
2023-04-14T19:41:35.386Z,71.29
2023-04-14T19:44:03.987Z,71.25
2023-04-14T19:46:32.094Z,71.29
2023-04-14T19:49:00.895Z,71.25
2023-04-14T19:51:28.879Z,71.27
2023-04-14T19:53:57.156Z,71.18
2023-04-14T19:56:24.996Z,71.29
2023-04-14T19:58:54.221Z,71.36
2023-04-14T20:01:24.069Z,71.20
2023-04-14T20:04:07.803Z,71.20
2023-04-14T20:06:40.204Z,71.25
2023-04-14T20:09:08.003Z,71.21
2023-04-14T20:11:35.926Z,71.01
2023-04-14T20:14:05.030Z,71.03
2023-04-14T20:16:32.925Z,71.23
2023-04-14T20:19:01.703Z,71.49
2023-04-14T20:21:29.914Z,71.10
2023-04-14T20:23:57.786Z,71.10
2023-04-14T20:26:25.581Z,71.35
2023-04-14T20:28:53.404Z,71.14
2023-04-14T20:31:23.824Z,71.21
2023-04-14T20:33:53.054Z,71.21
2023-04-14T20:36:46.446Z,71.24
2023-04-14T20:39:14.228Z,71.22
2023-04-14T20:41:42.152Z,71.37
2023-04-14T20:44:09.982Z,71.20
2023-04-14T20:46:39.145Z,71.10
2023-04-14T20:49:07.475Z,70.77
2023-04-14T20:51:35.517Z,71.17
2023-04-14T20:54:04.109Z,71.07
2023-04-14T20:56:33.872Z,71.12
2023-04-14T20:59:01.939Z,70.94
2023-04-14T21:01:30.471Z,71.17
2023-04-14T21:03:59.863Z,71.25
2023-04-14T21:06:27.653Z,71.29
2023-04-14T21:08:55.360Z,71.04
2023-04-14T21:11:23.327Z,70.97
2023-04-14T21:15:31.453Z,71.15
2023-04-14T21:16:39.618Z,71.28
2023-04-14T21:19:09.421Z,70.99
2023-04-14T21:21:37.668Z,71.29
2023-04-14T21:24:06.065Z,71.12
2023-04-14T21:26:33.947Z,71.03
2023-04-14T21:29:01.976Z,71.09
2023-04-14T21:31:29.988Z,71.16
2023-04-14T21:33:57.918Z,70.94
2023-04-14T21:36:27.344Z,71.31
2023-04-14T21:38:55.304Z,71.26
2023-04-14T21:41:23.197Z,71.13
2023-04-14T21:43:51.518Z,71.04
2023-04-14T21:46:19.402Z,71.01
2023-04-14T21:48:47.753Z,70.91
2023-04-14T21:51:15.606Z,71.24
2023-04-14T21:53:44.672Z,71.07
2023-04-14T21:56:12.929Z,70.95
2023-04-14T21:58:40.766Z,71.11
2023-04-14T22:01:09.565Z,70.98
2023-04-14T22:03:38.978Z,71.24
2023-04-14T22:06:07.341Z,70.89
2023-04-14T22:08:35.129Z,71.01
2023-04-14T22:11:04.840Z,71.24
2023-04-14T22:13:32.628Z,71.19
2023-04-14T22:16:01.277Z,71.16
2023-04-14T22:18:30.862Z,71.04
2023-04-14T22:20:58.710Z,71.47
2023-04-14T22:23:26.463Z,71.29
2023-04-14T22:25:54.243Z,71.34
2023-04-14T22:28:23.336Z,70.90
2023-04-14T22:30:51.227Z,71.18
2023-04-14T22:33:19.107Z,71.03
2023-04-14T22:35:46.836Z,71.24
2023-04-14T22:38:14.744Z,71.06
2023-04-14T22:40:42.558Z,70.96
2023-04-14T22:43:10.818Z,71.21
2023-04-14T22:45:40.554Z,71.51
2023-04-14T22:48:10.291Z,71.18
2023-04-14T22:50:38.277Z,70.99
2023-04-14T22:53:07.033Z,70.77
2023-04-14T22:55:34.910Z,71.35
2023-04-14T22:58:02.755Z,71.17
2023-04-14T23:00:31.177Z,71.11
2023-04-14T23:03:00.468Z,70.91
2023-04-14T23:05:28.661Z,71.26
2023-04-14T23:07:56.471Z,71.49
2023-04-14T23:10:24.699Z,71.15
2023-04-14T23:12:52.621Z,70.87
2023-04-14T23:15:20.619Z,71.19
2023-04-14T23:17:48.360Z,71.13
2023-04-14T23:20:17.577Z,71.51
2023-04-14T23:22:45.439Z,70.94
2023-04-14T23:25:13.316Z,71.11
2023-04-14T23:27:41.261Z,71.50
2023-04-14T23:30:10.633Z,71.35
2023-04-14T23:32:38.602Z,71.24
2023-04-14T23:35:07.803Z,71.25
2023-04-14T23:37:37.241Z,71.24
2023-04-14T23:40:06.230Z,70.99
2023-04-14T23:42:34.655Z,71.04
2023-04-14T23:45:02.546Z,70.82
2023-04-14T23:47:30.663Z,71.14
2023-04-14T23:49:58.641Z,71.14
2023-04-14T23:52:27.083Z,71.22
2023-04-14T23:54:56.411Z,70.98
2023-04-14T23:57:24.621Z,70.95
2023-04-14T23:59:52.971Z,71.36
